Lumberton, Mississippi
Current Conditions -  °F | °C
As of 7:53 AM on Saturday 25 Oct 2014 (Local Time) from KHBG Reporting Station
Clear Clear  
Wind Chill: 48°   Ceiling: Unl
Heat Index: 48°   Visibility: 8mi
Dew Point: 47°   Wind: 0mph
Humidity: 96%   Direction: NA
Pressure: 30.15"   Gusts: NA
Location:  31°N, 89.45°W
Report Text: KHBG 251253Z AUTO 00000KT 8SM CLR 09/08 A3015 RMK AO2 SLP207 T00890083
Loading
Personal Weather Stations






























Interactive Weather Map
Tropical Storm Tracking
New forecast layout! Learn more

10-Day Weather Forecast

Advertisements
Track Severe Weather on mobile